createdAt,value
2019-05-10T00:00:40.428Z,2.67
2019-05-10T00:02:01.927Z,2.60
2019-05-10T00:03:23.429Z,2.58
2019-05-10T00:04:44.850Z,2.55
2019-05-10T00:06:06.595Z,2.50
2019-05-10T00:07:28.131Z,3.10
2019-05-10T00:08:46.681Z,3.00
2019-05-10T00:09:49.752Z,3.17
2019-05-10T00:11:00.860Z,3.80
2019-05-10T00:12:06.214Z,2.90
2019-05-10T00:13:14.115Z,3.70
2019-05-10T00:14:35.993Z,3.83
2019-05-10T00:15:39.635Z,4.15
2019-05-10T00:16:43.462Z,4.35
2019-05-10T00:17:47.028Z,4.00
2019-05-10T00:18:50.778Z,4.80
2019-05-10T00:19:54.344Z,4.28
2019-05-10T00:20:58.187Z,4.85
2019-05-10T00:22:01.796Z,4.60
2019-05-10T00:23:05.546Z,4.90
2019-05-10T00:24:09.106Z,5.22
2019-05-10T00:25:12.939Z,4.22
2019-05-10T00:26:16.581Z,4.92
2019-05-10T00:27:20.453Z,4.35
2019-05-10T00:28:24.011Z,4.50
2019-05-10T00:29:27.795Z,4.00
2019-05-10T00:30:31.396Z,4.90
2019-05-10T00:31:35.224Z,4.60
2019-05-10T00:32:38.832Z,4.62
2019-05-10T00:33:42.584Z,4.87
2019-05-10T00:34:46.159Z,5.40
2019-05-10T00:35:49.912Z,4.50
2019-05-10T00:36:53.475Z,4.70
2019-05-10T00:37:57.257Z,5.28
2019-05-10T00:39:00.873Z,5.00
2019-05-10T00:40:06.960Z,5.42
2019-05-10T00:41:10.542Z,4.80
2019-05-10T00:42:14.283Z,4.90
2019-05-10T00:43:17.889Z,5.00
2019-05-10T00:44:21.648Z,4.30
2019-05-10T00:45:25.207Z,4.33
2019-05-10T00:46:29.000Z,3.98
2019-05-10T00:47:32.576Z,4.45
2019-05-10T00:48:36.329Z,4.60
2019-05-10T00:49:39.903Z,5.47
2019-05-10T00:50:43.652Z,4.62
2019-05-10T00:51:47.257Z,4.65
2019-05-10T00:52:51.068Z,5.20
2019-05-10T00:53:54.585Z,5.20
2019-05-10T00:54:58.334Z,4.75
2019-05-10T00:56:01.908Z,4.35
2019-05-10T00:57:05.703Z,5.22
2019-05-10T00:58:09.304Z,4.80
2019-05-10T00:59:13.018Z,5.05
2019-05-10T01:00:16.722Z,4.70
2019-05-10T01:01:20.495Z,5.70
2019-05-10T01:02:24.088Z,4.80
2019-05-10T01:03:28.303Z,5.10
2019-05-10T01:04:31.875Z,5.20
2019-05-10T01:05:35.659Z,5.42
2019-05-10T01:06:39.275Z,5.53
2019-05-10T01:07:43.028Z,5.20
2019-05-10T01:08:46.603Z,5.37
2019-05-10T01:09:50.347Z,5.67
2019-05-10T01:10:53.947Z,5.50
2019-05-10T01:11:57.713Z,5.33
2019-05-10T01:13:01.345Z,5.45
2019-05-10T01:14:05.163Z,5.60
2019-05-10T01:15:09.395Z,4.75
2019-05-10T01:16:13.149Z,5.12
2019-05-10T01:17:16.714Z,5.05
2019-05-10T01:18:20.505Z,4.55
2019-05-10T01:19:24.104Z,4.58
2019-05-10T01:20:27.847Z,4.90
2019-05-10T01:21:31.406Z,5.65
2019-05-10T01:22:35.191Z,5.10
2019-05-10T01:23:38.763Z,4.50
2019-05-10T01:24:42.514Z,5.22
2019-05-10T01:25:46.075Z,5.00
2019-05-10T01:26:49.863Z,4.70
2019-05-10T01:27:53.435Z,5.05
2019-05-10T01:28:57.187Z,4.42
2019-05-10T01:30:00.756Z,4.50
2019-05-10T01:31:04.542Z,4.47
2019-05-10T01:32:08.107Z,5.00
2019-05-10T01:33:11.875Z,4.50
2019-05-10T01:34:15.461Z,4.80
2019-05-10T01:35:19.202Z,4.10
2019-05-10T01:36:24.399Z,5.03
2019-05-10T01:37:28.146Z,5.30
2019-05-10T01:38:31.722Z,4.08
2019-05-10T01:39:35.463Z,5.12
2019-05-10T01:40:39.040Z,4.95
2019-05-10T01:41:42.815Z,4.35
2019-05-10T01:42:46.385Z,4.70
2019-05-10T01:43:50.198Z,4.95
2019-05-10T01:44:53.764Z,4.85
2019-05-10T01:45:57.515Z,4.12
2019-05-10T01:47:01.126Z,4.55
2019-05-10T01:48:04.955Z,4.50
2019-05-10T01:49:08.568Z,3.92
2019-05-10T01:50:12.651Z,4.35
2019-05-10T01:51:16.212Z,4.65
2019-05-10T01:52:19.991Z,4.22
2019-05-10T01:53:23.566Z,4.15
2019-05-10T01:54:27.343Z,4.67
2019-05-10T01:55:30.910Z,4.03
2019-05-10T01:56:34.663Z,4.45
2019-05-10T01:57:38.305Z,3.75
2019-05-10T01:58:42.167Z,3.83
2019-05-10T01:59:45.735Z,4.25
2019-05-10T02:00:49.498Z,4.20
2019-05-10T02:01:53.064Z,4.10
2019-05-10T02:02:56.812Z,4.40
2019-05-10T02:04:00.422Z,4.35
2019-05-10T02:05:04.899Z,4.45
2019-05-10T02:06:08.467Z,4.00
2019-05-10T02:07:12.215Z,4.62
2019-05-10T02:08:15.908Z,4.47
2019-05-10T02:09:19.653Z,4.58
2019-05-10T02:10:23.214Z,4.20
2019-05-10T02:11:26.969Z,4.30
2019-05-10T02:12:30.539Z,4.80
2019-05-10T02:13:34.355Z,4.62
2019-05-10T02:14:37.900Z,4.30
2019-05-10T02:15:41.698Z,4.22
2019-05-10T02:16:45.261Z,4.97
2019-05-10T02:17:49.015Z,4.75
2019-05-10T02:18:52.596Z,4.60
2019-05-10T02:19:56.407Z,4.80
2019-05-10T02:21:00.017Z,4.70
2019-05-10T02:22:03.808Z,5.08
2019-05-10T02:23:07.388Z,4.75
2019-05-10T02:24:11.172Z,4.70
2019-05-10T02:25:14.889Z,4.37
2019-05-10T02:26:18.639Z,4.35
2019-05-10T02:27:22.211Z,4.33
2019-05-10T02:28:25.955Z,3.80
2019-05-10T02:29:29.560Z,4.92
2019-05-10T02:30:33.314Z,4.42
2019-05-10T02:31:36.884Z,5.22
2019-05-10T02:32:40.672Z,4.90
2019-05-10T02:33:44.252Z,4.67
2019-05-10T02:34:47.995Z,4.40
2019-05-10T02:35:51.563Z,4.20
2019-05-10T02:36:55.420Z,4.67
2019-05-10T02:37:58.982Z,4.37
2019-05-10T02:39:02.755Z,4.40
2019-05-10T02:40:06.748Z,4.87
2019-05-10T02:41:10.506Z,5.00
2019-05-10T02:42:14.170Z,5.10
2019-05-10T02:43:18.002Z,4.47
2019-05-10T02:44:21.569Z,4.42
2019-05-10T02:45:25.317Z,4.80
2019-05-10T02:46:28.922Z,4.90
2019-05-10T02:47:32.703Z,4.37
2019-05-10T02:48:36.365Z,5.42
2019-05-10T02:49:40.146Z,4.78
2019-05-10T02:50:43.710Z,5.17
2019-05-10T02:51:47.459Z,5.58
2019-05-10T02:52:51.033Z,4.83
2019-05-10T02:53:55.079Z,5.10
2019-05-10T02:54:59.382Z,5.53
2019-05-10T02:56:03.778Z,5.25
2019-05-10T02:57:08.623Z,5.62
2019-05-10T02:58:15.304Z,6.47
2019-05-10T02:59:18.031Z,5.87
2019-05-10T03:00:21.847Z,5.65
2019-05-10T03:01:28.498Z,5.80
2019-05-10T03:02:33.479Z,5.20
2019-05-10T03:03:39.214Z,5.80
2019-05-10T03:04:46.085Z,6.10
2019-05-10T03:05:51.663Z,5.92
2019-05-10T03:07:03.069Z,6.35
2019-05-10T03:08:06.641Z,5.87
2019-05-10T03:09:10.728Z,6.20
2019-05-10T03:10:15.366Z,5.55
2019-05-10T03:11:19.551Z,5.97
2019-05-10T03:12:25.761Z,5.37
2019-05-10T03:13:30.551Z,6.62
2019-05-10T03:14:37.224Z,6.15
2019-05-10T03:15:44.081Z,6.45
2019-05-10T03:16:52.009Z,6.00
2019-05-10T03:17:57.441Z,6.55
2019-05-10T03:19:03.342Z,5.75
2019-05-10T03:20:07.762Z,6.22
2019-05-10T03:21:14.404Z,6.25
2019-05-10T03:22:19.033Z,5.83
2019-05-10T03:23:23.427Z,6.70
2019-05-10T03:24:28.080Z,6.30
2019-05-10T03:25:31.906Z,6.85
2019-05-10T03:26:50.205Z,7.00
2019-05-10T03:27:43.134Z,6.62
2019-05-10T03:28:47.282Z,5.83
2019-05-10T03:29:50.997Z,7.05
2019-05-10T03:30:54.784Z,6.90
2019-05-10T03:31:58.429Z,7.28
2019-05-10T03:33:02.170Z,7.00
2019-05-10T03:34:05.800Z,6.83
2019-05-10T03:35:09.905Z,7.47
2019-05-10T03:36:13.564Z,7.25
2019-05-10T03:37:17.317Z,7.37
2019-05-10T03:38:21.128Z,6.40
2019-05-10T03:39:24.960Z,7.20
2019-05-10T03:40:28.736Z,7.15
2019-05-10T03:41:32.559Z,7.37
2019-05-10T03:42:36.295Z,7.08
2019-05-10T03:43:40.043Z,7.35
2019-05-10T03:44:43.623Z,6.75
2019-05-10T03:45:47.384Z,7.17
2019-05-10T03:46:50.947Z,6.60
2019-05-10T03:47:54.705Z,6.78
2019-05-10T03:48:58.273Z,7.40
2019-05-10T03:50:02.027Z,7.50
2019-05-10T03:51:05.615Z,7.47
2019-05-10T03:52:09.368Z,7.35
2019-05-10T03:53:12.981Z,8.05
2019-05-10T03:54:16.728Z,7.75
2019-05-10T03:55:20.299Z,7.40
2019-05-10T03:56:24.057Z,7.78
2019-05-10T03:57:27.695Z,7.67
2019-05-10T03:58:31.471Z,7.87
2019-05-10T03:59:35.056Z,7.95
2019-05-10T04:00:38.832Z,8.20
2019-05-10T04:01:42.400Z,6.70
2019-05-10T04:02:46.202Z,7.97
2019-05-10T04:03:49.769Z,7.70
2019-05-10T04:04:53.564Z,7.75
2019-05-10T04:05:57.182Z,8.25
2019-05-10T04:07:00.937Z,8.55
2019-05-10T04:08:04.571Z,7.67
2019-05-10T04:09:08.335Z,8.60
2019-05-10T04:10:12.041Z,8.70
2019-05-10T04:11:15.831Z,7.80
2019-05-10T04:12:19.397Z,8.55
2019-05-10T04:13:23.197Z,8.90
2019-05-10T04:14:26.772Z,7.75
2019-05-10T04:15:30.545Z,8.20
2019-05-10T04:16:34.127Z,8.45
2019-05-10T04:17:37.874Z,7.67
2019-05-10T04:18:41.480Z,8.40
2019-05-10T04:19:45.237Z,8.98
2019-05-10T04:20:48.808Z,7.37
2019-05-10T04:21:52.556Z,8.10
2019-05-10T04:22:56.123Z,8.45
2019-05-10T04:23:59.908Z,8.05
2019-05-10T04:25:04.027Z,7.75
2019-05-10T04:26:07.776Z,7.53
2019-05-10T04:27:29.519Z,8.38
2019-05-10T04:28:16.793Z,9.28
2019-05-10T04:29:20.393Z,8.70
2019-05-10T04:30:24.212Z,8.33
2019-05-10T04:31:27.807Z,8.63
2019-05-10T04:32:31.563Z,9.25
2019-05-10T04:33:35.128Z,8.85
2019-05-10T04:34:38.935Z,8.53
2019-05-10T04:35:42.516Z,8.55
2019-05-10T04:36:46.295Z,9.30
2019-05-10T04:37:49.833Z,8.20
2019-05-10T04:38:53.589Z,7.85
2019-05-10T04:39:57.194Z,8.60
2019-05-10T04:41:00.975Z,8.25
2019-05-10T04:42:04.621Z,8.88
2019-05-10T04:43:08.380Z,8.80
2019-05-10T04:44:11.940Z,8.85
2019-05-10T04:45:15.808Z,9.03
2019-05-10T04:46:19.375Z,8.43
2019-05-10T04:47:23.127Z,7.80
2019-05-10T04:48:26.707Z,7.20
2019-05-10T04:49:30.456Z,7.75
2019-05-10T04:50:34.080Z,7.05
2019-05-10T04:51:37.835Z,7.28
2019-05-10T04:52:41.412Z,7.90
2019-05-10T04:53:45.244Z,7.25
2019-05-10T04:54:48.740Z,6.10
2019-05-10T04:55:52.534Z,6.70
2019-05-10T04:56:59.977Z,6.80
2019-05-10T04:58:01.509Z,6.30
2019-05-10T04:59:05.067Z,6.65
2019-05-10T05:00:09.756Z,6.20
2019-05-10T05:01:13.356Z,6.12
2019-05-10T05:02:21.876Z,6.17
2019-05-10T05:03:22.347Z,6.72
2019-05-10T05:04:26.088Z,6.00
2019-05-10T05:05:29.700Z,5.70
2019-05-10T05:06:33.471Z,5.75
2019-05-10T05:07:37.039Z,6.00
2019-05-10T05:08:40.798Z,6.60
2019-05-10T05:09:44.360Z,5.62
2019-05-10T05:10:48.125Z,5.20
2019-05-10T05:11:51.696Z,5.95
2019-05-10T05:12:55.506Z,5.97
2019-05-10T05:13:59.051Z,6.33
2019-05-10T05:15:02.799Z,5.35
2019-05-10T05:16:06.373Z,5.90
2019-05-10T05:17:10.121Z,5.85
2019-05-10T05:18:13.757Z,5.60
2019-05-10T05:19:17.504Z,5.80
2019-05-10T05:20:21.075Z,5.40
2019-05-10T05:21:24.872Z,5.60
2019-05-10T05:22:28.626Z,5.05
2019-05-10T05:23:32.399Z,5.20
2019-05-10T05:24:36.184Z,5.53
2019-05-10T05:25:40.632Z,5.30
2019-05-10T05:26:45.470Z,4.80
2019-05-10T05:28:06.136Z,5.35
2019-05-10T05:28:54.664Z,5.58
2019-05-10T05:29:58.412Z,5.20
2019-05-10T05:31:02.160Z,5.87
2019-05-10T05:32:05.921Z,6.05
2019-05-10T05:33:09.722Z,6.28
2019-05-10T05:34:13.476Z,4.70
2019-05-10T05:35:17.365Z,4.90
2019-05-10T05:36:21.112Z,4.65
2019-05-10T05:37:24.860Z,5.47
2019-05-10T05:38:28.659Z,4.60
2019-05-10T05:39:32.407Z,4.50
2019-05-10T05:40:36.215Z,4.03
2019-05-10T05:41:49.923Z,3.90
2019-05-10T05:42:45.365Z,4.15
2019-05-10T05:43:49.121Z,4.78
2019-05-10T05:44:52.864Z,4.20
2019-05-10T05:45:56.652Z,5.30
2019-05-10T05:47:04.218Z,4.10
2019-05-10T05:48:05.804Z,4.35
2019-05-10T05:49:09.551Z,4.80
2019-05-10T05:50:13.413Z,4.08
2019-05-10T05:51:17.159Z,3.92
2019-05-10T05:52:20.950Z,4.67
2019-05-10T05:53:24.995Z,4.75
2019-05-10T05:54:28.727Z,4.47
2019-05-10T05:55:32.517Z,3.50
2019-05-10T05:56:36.254Z,4.08
2019-05-10T05:57:40.017Z,3.55
2019-05-10T05:58:45.195Z,3.47
2019-05-10T05:59:49.268Z,3.47
2019-05-10T06:00:53.060Z,4.00
2019-05-10T06:02:00.618Z,3.85
2019-05-10T06:03:02.244Z,3.90
2019-05-10T06:04:06.990Z,3.83
2019-05-10T06:05:11.505Z,3.80
2019-05-10T06:06:20.496Z,4.22
2019-05-10T06:07:20.704Z,4.03
2019-05-10T06:08:25.047Z,4.53
2019-05-10T06:09:32.058Z,4.20
2019-05-10T06:10:34.547Z,4.10
2019-05-10T06:11:38.291Z,4.25
2019-05-10T06:12:44.621Z,4.25
2019-05-10T06:13:47.442Z,4.25
2019-05-10T06:14:52.368Z,3.80
2019-05-10T06:15:59.837Z,3.85
2019-05-10T06:17:01.687Z,4.75
2019-05-10T06:18:09.785Z,4.90
2019-05-10T06:19:10.912Z,4.70
2019-05-10T06:20:14.840Z,4.08
2019-05-10T06:21:25.151Z,4.58
2019-05-10T06:22:23.988Z,4.40
2019-05-10T06:23:29.329Z,4.08
2019-05-10T06:24:34.464Z,4.12
2019-05-10T06:25:39.879Z,4.45
2019-05-10T06:26:43.728Z,5.05
2019-05-10T06:27:47.478Z,3.85
2019-05-10T06:29:03.728Z,4.20
2019-05-10T06:29:56.654Z,4.87
2019-05-10T06:31:00.406Z,4.47
2019-05-10T06:32:04.225Z,4.37
2019-05-10T06:33:12.538Z,4.03
2019-05-10T06:34:13.424Z,3.87
2019-05-10T06:35:19.443Z,4.50
2019-05-10T06:36:22.670Z,4.08
2019-05-10T06:37:26.420Z,4.85
2019-05-10T06:38:30.168Z,4.50
2019-05-10T06:39:33.923Z,4.30
2019-05-10T06:40:46.527Z,3.90
2019-05-10T06:41:43.091Z,4.47
2019-05-10T06:42:46.874Z,4.30
2019-05-10T06:43:51.333Z,4.33
2019-05-10T06:44:56.038Z,4.67
2019-05-10T06:45:59.791Z,4.15
2019-05-10T06:47:08.201Z,4.20
2019-05-10T06:48:08.963Z,4.95
2019-05-10T06:49:12.716Z,4.53
2019-05-10T06:50:22.649Z,3.98
2019-05-10T06:51:23.144Z,4.37
2019-05-10T06:52:27.872Z,5.08
2019-05-10T06:53:32.415Z,4.15
2019-05-10T06:54:36.176Z,4.28
2019-05-10T06:55:40.766Z,3.83
2019-05-10T06:56:44.506Z,4.00
2019-05-10T06:57:50.552Z,4.05
2019-05-10T06:58:53.639Z,4.22
2019-05-10T07:00:06.268Z,4.00
2019-05-10T07:01:02.827Z,4.25
2019-05-10T07:02:06.584Z,4.40
2019-05-10T07:03:10.331Z,4.42
2019-05-10T07:04:14.115Z,4.03
2019-05-10T07:05:17.943Z,4.17
2019-05-10T07:06:21.699Z,4.42
2019-05-10T07:07:42.409Z,4.30
2019-05-10T07:08:43.284Z,4.00
2019-05-10T07:10:01.558Z,4.97
2019-05-10T07:10:42.134Z,4.30
2019-05-10T07:11:45.869Z,4.12
2019-05-10T07:12:49.678Z,4.00
2019-05-10T07:13:53.495Z,3.70
2019-05-10T07:14:57.888Z,3.95
2019-05-10T07:16:02.647Z,4.60
2019-05-10T07:17:06.399Z,4.35
2019-05-10T07:18:10.159Z,4.50
2019-05-10T07:19:13.950Z,3.70
2019-05-10T07:20:17.768Z,4.40
2019-05-10T07:21:21.590Z,4.08
2019-05-10T07:22:26.948Z,3.70
2019-05-10T07:23:30.743Z,4.83
2019-05-10T07:24:34.525Z,3.83
2019-05-10T07:25:43.613Z,4.60
2019-05-10T07:26:43.711Z,4.15
2019-05-10T07:27:50.326Z,4.30
2019-05-10T07:28:57.566Z,4.12
2019-05-10T07:29:58.243Z,5.05
2019-05-10T07:31:01.998Z,4.42
2019-05-10T07:32:05.802Z,4.95
2019-05-10T07:33:09.562Z,4.17
2019-05-10T07:34:15.608Z,4.30
2019-05-10T07:35:21.512Z,5.20
2019-05-10T07:36:27.599Z,4.40
2019-05-10T07:37:30.703Z,4.50
2019-05-10T07:38:34.459Z,4.70
2019-05-10T07:39:38.211Z,4.72
2019-05-10T07:40:41.966Z,4.53
2019-05-10T07:41:45.765Z,4.17
2019-05-10T07:42:49.525Z,4.15
2019-05-10T07:43:53.252Z,4.10
2019-05-10T07:44:57.038Z,4.40
2019-05-10T07:46:06.406Z,3.33
2019-05-10T07:47:06.248Z,4.45
2019-05-10T07:48:10.377Z,3.25
2019-05-10T07:49:14.267Z,3.98
2019-05-10T07:50:18.952Z,4.20
2019-05-10T07:51:28.088Z,4.10
2019-05-10T07:52:28.128Z,4.20
2019-05-10T07:53:31.893Z,3.50
2019-05-10T07:54:37.630Z,3.55
2019-05-10T07:55:41.067Z,3.85
2019-05-10T07:56:45.745Z,3.77
2019-05-10T07:57:50.250Z,3.10
2019-05-10T07:58:54.003Z,3.52
2019-05-10T08:00:03.297Z,3.65
2019-05-10T08:01:03.223Z,3.30
2019-05-10T08:02:13.060Z,3.20
2019-05-10T08:03:17.519Z,3.50
2019-05-10T08:04:21.979Z,4.28
2019-05-10T08:05:23.344Z,3.22
2019-05-10T08:06:33.907Z,3.47
2019-05-10T08:07:32.557Z,3.37
2019-05-10T08:08:38.879Z,3.12
2019-05-10T08:09:44.974Z,3.58
2019-05-10T08:10:48.826Z,3.37
2019-05-10T08:11:54.206Z,3.45
2019-05-10T08:12:59.532Z,3.20
2019-05-10T08:14:06.125Z,3.25
2019-05-10T08:15:10.816Z,3.00
2019-05-10T08:16:21.942Z,3.10
2019-05-10T08:17:19.962Z,3.60
2019-05-10T08:18:25.466Z,3.25
2019-05-10T08:19:32.806Z,2.85
2019-05-10T08:20:46.614Z,3.25
2019-05-10T08:21:41.803Z,3.10
2019-05-10T08:22:46.230Z,3.42
2019-05-10T08:23:51.931Z,3.30
2019-05-10T08:24:56.469Z,3.50
2019-05-10T08:26:04.224Z,2.75
2019-05-10T08:27:11.594Z,3.95
2019-05-10T08:28:12.692Z,2.65
2019-05-10T08:29:17.184Z,2.85
2019-05-10T08:30:42.657Z,3.05
2019-05-10T08:31:50.704Z,3.45
2019-05-10T08:32:49.684Z,2.95
2019-05-10T08:33:58.606Z,2.85
2019-05-10T08:34:58.848Z,3.33
2019-05-10T08:36:05.362Z,2.87
2019-05-10T08:37:08.035Z,3.35
2019-05-10T08:38:12.946Z,3.30
2019-05-10T08:39:16.845Z,3.20
2019-05-10T08:40:28.111Z,3.08
2019-05-10T08:41:25.982Z,3.20
2019-05-10T08:42:43.820Z,3.60
2019-05-10T08:43:38.851Z,3.37
2019-05-10T08:44:42.687Z,3.45
2019-05-10T08:45:49.522Z,3.47
2019-05-10T08:46:52.527Z,3.12
2019-05-10T08:48:01.116Z,3.55
2019-05-10T08:49:02.241Z,3.45
2019-05-10T08:50:24.212Z,2.87
2019-05-10T08:51:12.522Z,3.85
2019-05-10T08:52:19.266Z,3.30
2019-05-10T08:53:23.109Z,3.65
2019-05-10T08:54:26.978Z,3.55
2019-05-10T08:55:32.096Z,3.55
2019-05-10T08:56:35.871Z,4.37
2019-05-10T08:57:44.432Z,3.50
2019-05-10T08:58:45.050Z,2.98
2019-05-10T08:59:53.499Z,3.47
2019-05-10T09:01:11.180Z,3.45
2019-05-10T09:02:01.961Z,3.67
2019-05-10T09:03:09.539Z,4.10
2019-05-10T09:04:11.666Z,3.72
2019-05-10T09:05:22.567Z,3.50
2019-05-10T09:06:22.046Z,3.70
2019-05-10T09:07:29.415Z,3.70
2019-05-10T09:08:34.023Z,4.22
2019-05-10T09:09:45.555Z,3.67
2019-05-10T09:10:42.304Z,3.35
2019-05-10T09:11:46.042Z,3.47
2019-05-10T09:12:54.171Z,2.90
2019-05-10T09:13:57.788Z,3.50
2019-05-10T09:15:06.806Z,3.70
2019-05-10T09:16:06.089Z,3.30
2019-05-10T09:17:14.905Z,3.27
2019-05-10T09:18:15.239Z,3.50
2019-05-10T09:19:24.278Z,2.65
2019-05-10T09:20:26.322Z,3.10
2019-05-10T09:21:32.036Z,3.42
2019-05-10T09:22:38.591Z,3.27
2019-05-10T09:23:42.695Z,2.80
2019-05-10T09:24:48.645Z,2.95
2019-05-10T09:25:52.015Z,3.37
2019-05-10T09:26:57.056Z,2.95
2019-05-10T09:28:02.347Z,2.70
2019-05-10T09:29:06.502Z,3.00
2019-05-10T09:30:16.160Z,2.50
2019-05-10T09:31:20.843Z,1.90
2019-05-10T09:32:28.744Z,1.80
2019-05-10T09:33:26.543Z,2.20
2019-05-10T09:34:32.352Z,2.20
2019-05-10T09:35:38.808Z,2.37
2019-05-10T09:36:44.883Z,2.60
2019-05-10T09:37:47.623Z,3.30
2019-05-10T09:38:52.677Z,4.05
2019-05-10T09:40:06.054Z,2.58
2019-05-10T09:41:02.579Z,2.05
2019-05-10T09:42:09.872Z,2.10
2019-05-10T09:43:14.392Z,2.15
2019-05-10T09:44:17.327Z,2.65
2019-05-10T09:45:22.183Z,2.25
2019-05-10T09:46:26.503Z,2.50
2019-05-10T09:47:30.263Z,2.37
2019-05-10T09:48:34.079Z,2.47
2019-05-10T09:49:37.822Z,2.65
2019-05-10T09:50:46.794Z,2.40
2019-05-10T09:51:46.963Z,2.65
2019-05-10T09:52:51.686Z,2.85
2019-05-10T09:53:57.579Z,3.10
2019-05-10T09:55:03.985Z,2.77
2019-05-10T09:56:07.915Z,3.20
2019-05-10T09:57:11.711Z,3.33
2019-05-10T09:58:21.702Z,3.30
2019-05-10T09:59:20.909Z,3.22
2019-05-10T10:00:37.920Z,2.47
2019-05-10T10:01:41.019Z,3.27
2019-05-10T10:02:47.687Z,3.37
2019-05-10T10:03:50.236Z,3.30
2019-05-10T10:04:53.978Z,3.12
2019-05-10T10:06:05.513Z,2.90
2019-05-10T10:07:03.176Z,3.47
2019-05-10T10:08:08.990Z,3.15
2019-05-10T10:09:12.320Z,3.35
2019-05-10T10:10:21.307Z,3.05
2019-05-10T10:11:21.648Z,3.87
2019-05-10T10:12:25.417Z,3.45
2019-05-10T10:13:39.423Z,3.67
2019-05-10T10:14:39.364Z,3.40
2019-05-10T10:15:39.965Z,3.05
2019-05-10T10:16:48.890Z,3.30
2019-05-10T10:17:49.139Z,3.30
2019-05-10T10:18:52.888Z,3.30
2019-05-10T10:19:57.923Z,3.20
2019-05-10T10:21:01.729Z,3.22
2019-05-10T10:22:10.628Z,3.05
2019-05-10T10:23:10.902Z,4.30
2019-05-10T10:24:17.825Z,3.35
2019-05-10T10:25:20.085Z,3.37
2019-05-10T10:26:23.831Z,2.83
2019-05-10T10:27:34.308Z,3.40
2019-05-10T10:28:36.226Z,3.42
2019-05-10T10:29:38.854Z,3.67
2019-05-10T10:30:42.703Z,3.20
2019-05-10T10:31:52.992Z,2.98
2019-05-10T10:32:51.853Z,3.05
2019-05-10T10:34:02.671Z,3.00
2019-05-10T10:35:01.037Z,3.27
2019-05-10T10:36:07.615Z,3.22
2019-05-10T10:37:14.587Z,2.95
2019-05-10T10:38:17.486Z,3.10
2019-05-10T10:39:22.827Z,2.37
2019-05-10T10:40:27.950Z,3.17
2019-05-10T10:41:32.115Z,3.35
2019-05-10T10:42:38.025Z,3.50
2019-05-10T10:43:41.900Z,2.90
2019-05-10T10:44:48.157Z,2.47
2019-05-10T10:45:51.084Z,2.10
2019-05-10T10:46:54.848Z,2.90
2019-05-10T10:48:02.481Z,2.50
2019-05-10T10:49:05.510Z,2.40
2019-05-10T10:50:13.436Z,2.75
2019-05-10T10:51:15.354Z,2.60
2019-05-10T10:52:19.178Z,2.60
2019-05-10T10:53:22.988Z,2.85
2019-05-10T10:54:31.144Z,2.72
2019-05-10T10:55:36.636Z,2.85
2019-05-10T10:56:37.923Z,2.83
2019-05-10T10:57:41.663Z,2.60
2019-05-10T10:58:49.593Z,2.62
2019-05-10T10:59:50.816Z,2.67
2019-05-10T11:00:54.591Z,3.25
2019-05-10T11:02:27.252Z,2.83
2019-05-10T11:03:04.911Z,3.20
2019-05-10T11:04:09.857Z,3.08
2019-05-10T11:05:14.310Z,2.77
2019-05-10T11:06:18.061Z,3.37
2019-05-10T11:07:21.848Z,3.37
2019-05-10T11:08:25.589Z,3.22
2019-05-10T11:09:31.157Z,3.60
2019-05-10T11:10:34.798Z,3.30
2019-05-10T11:11:41.727Z,3.20
2019-05-10T11:12:43.992Z,3.30
2019-05-10T11:13:58.009Z,3.60
2019-05-10T11:14:53.118Z,3.90
2019-05-10T11:15:58.864Z,3.75
2019-05-10T11:17:02.487Z,3.52
2019-05-10T11:18:06.302Z,3.33
2019-05-10T11:19:15.285Z,3.02
2019-05-10T11:20:15.534Z,4.00
2019-05-10T11:21:23.422Z,3.27
2019-05-10T11:22:27.323Z,3.87
2019-05-10T11:23:35.741Z,3.60
2019-05-10T11:24:35.518Z,3.55
2019-05-10T11:25:42.756Z,3.08
2019-05-10T11:26:45.014Z,2.90
2019-05-10T11:27:53.923Z,3.95
2019-05-10T11:28:54.391Z,3.80
2019-05-10T11:30:00.705Z,4.05
2019-05-10T11:31:03.514Z,3.98
2019-05-10T11:32:15.902Z,4.22
2019-05-10T11:33:25.783Z,3.47
2019-05-10T11:34:18.802Z,4.97
2019-05-10T11:35:30.236Z,4.70
2019-05-10T11:36:27.984Z,4.25
2019-05-10T11:37:36.211Z,4.62
2019-05-10T11:38:37.255Z,4.20
2019-05-10T11:39:46.746Z,4.53
2019-05-10T11:40:46.385Z,3.92
2019-05-10T11:41:52.825Z,4.15
2019-05-10T11:42:55.576Z,4.47
2019-05-10T11:44:06.443Z,4.15
2019-05-10T11:45:07.237Z,4.67
2019-05-10T11:46:11.724Z,5.35
2019-05-10T11:47:23.969Z,5.08
2019-05-10T11:48:21.569Z,4.85
2019-05-10T11:49:25.336Z,4.58
2019-05-10T11:50:34.901Z,4.78
2019-05-10T11:51:36.199Z,5.60
2019-05-10T11:52:40.773Z,6.12
2019-05-10T11:53:48.976Z,6.08
2019-05-10T11:54:51.427Z,6.40
2019-05-10T11:55:55.467Z,6.22
2019-05-10T11:57:06.530Z,6.90
2019-05-10T11:58:08.732Z,7.42
2019-05-10T11:59:15.827Z,7.10
2019-05-10T12:00:28.189Z,6.87
2019-05-10T12:01:22.240Z,6.95
2019-05-10T12:02:38.065Z,6.83
2019-05-10T12:03:31.895Z,6.58
2019-05-10T12:04:39.267Z,7.95
2019-05-10T12:05:42.488Z,7.40
2019-05-10T12:06:49.923Z,7.92
2019-05-10T12:07:54.721Z,8.78
2019-05-10T12:09:02.085Z,7.20
2019-05-10T12:10:12.272Z,7.50
2019-05-10T12:11:21.097Z,7.10
2019-05-10T12:12:13.663Z,6.53
2019-05-10T12:13:20.876Z,7.20
2019-05-10T12:14:22.848Z,6.87
2019-05-10T12:15:26.677Z,6.70
2019-05-10T12:16:33.281Z,6.87
2019-05-10T12:17:35.868Z,7.85
2019-05-10T12:18:46.716Z,7.50
2019-05-10T12:21:00.380Z,7.65
2019-05-10T12:21:56.406Z,7.47
2019-05-10T12:23:03.387Z,8.35
2019-05-10T12:24:19.180Z,7.20
2019-05-10T12:25:31.967Z,7.80
2019-05-10T12:26:58.371Z,7.22
2019-05-10T12:27:12.606Z,7.65
2019-05-10T12:27:29.327Z,8.05
2019-05-10T12:28:29.061Z,7.78
2019-05-10T12:29:32.808Z,7.92
2019-05-10T12:30:37.284Z,6.80
2019-05-10T12:31:41.558Z,7.22
2019-05-10T12:32:55.584Z,5.72
2019-05-10T12:33:50.956Z,5.15
2019-05-10T12:34:56.670Z,5.60
2019-05-10T12:36:00.153Z,5.10
2019-05-10T12:37:08.237Z,4.30
2019-05-10T12:38:11.306Z,3.80
2019-05-10T12:39:14.772Z,3.75
2019-05-10T12:40:18.587Z,3.70
2019-05-10T12:41:23.482Z,3.87
2019-05-10T12:42:27.252Z,3.67
2019-05-10T12:43:31.096Z,3.15
2019-05-10T12:44:38.979Z,4.20
2019-05-10T12:45:41.837Z,4.85
2019-05-10T12:46:45.742Z,5.62
2019-05-10T12:47:51.825Z,4.95
2019-05-10T12:48:55.010Z,5.40
2019-05-10T12:50:02.045Z,5.65
2019-05-10T12:51:11.269Z,4.72
2019-05-10T12:52:14.045Z,5.42
2019-05-10T12:53:18.337Z,5.97
2019-05-10T12:54:23.841Z,6.30
2019-05-10T12:55:26.107Z,6.55
2019-05-10T12:56:34.960Z,6.33
2019-05-10T12:57:35.296Z,7.03
2019-05-10T12:58:39.047Z,7.65
2019-05-10T12:59:42.795Z,7.37
2019-05-10T13:00:52.225Z,7.37
2019-05-10T13:01:51.986Z,6.90
2019-05-10T13:03:10.295Z,6.58
2019-05-10T13:04:02.155Z,7.08
2019-05-10T13:05:06.768Z,6.70
2019-05-10T13:06:10.568Z,6.90
2019-05-10T13:07:14.355Z,5.90
2019-05-10T13:08:18.139Z,5.90
2019-05-10T13:09:36.515Z,6.55
2019-05-10T13:10:27.509Z,7.00
2019-05-10T13:11:31.356Z,6.10
2019-05-10T13:12:36.833Z,5.25
2019-05-10T13:13:40.555Z,4.92
2019-05-10T13:14:46.543Z,5.50
2019-05-10T13:15:49.718Z,6.33
2019-05-10T13:16:53.475Z,12.30
2019-05-10T13:17:57.273Z,6.80
2019-05-10T13:19:01.014Z,6.95
2019-05-10T13:20:07.871Z,6.40
2019-05-10T13:21:19.529Z,4.95
2019-05-10T13:22:17.025Z,6.05
2019-05-10T13:23:20.806Z,5.70
2019-05-10T13:24:24.565Z,5.62
2019-05-10T13:25:28.311Z,6.28
2019-05-10T13:26:32.063Z,6.80
2019-05-10T13:27:35.821Z,6.58
2019-05-10T13:28:39.623Z,6.60
2019-05-10T13:29:47.088Z,5.17
2019-05-10T13:30:49.094Z,5.47
2019-05-10T13:31:56.393Z,6.33
2019-05-10T13:33:00.207Z,5.40
2019-05-10T13:34:03.666Z,6.25
2019-05-10T13:35:07.820Z,5.70
2019-05-10T13:36:11.537Z,6.15
2019-05-10T13:37:23.223Z,5.17
2019-05-10T13:38:20.694Z,5.60
2019-05-10T13:39:25.693Z,6.17
2019-05-10T13:40:30.528Z,7.22
2019-05-10T13:41:34.440Z,7.05
2019-05-10T13:42:43.408Z,6.15
2019-05-10T13:43:43.655Z,6.75
2019-05-10T13:44:47.475Z,6.50
2019-05-10T13:45:51.243Z,7.33
2019-05-10T13:46:54.990Z,6.92
2019-05-10T13:47:58.746Z,7.75
2019-05-10T13:49:02.560Z,7.87
2019-05-10T13:50:08.128Z,8.05
2019-05-10T13:51:11.932Z,7.55
2019-05-10T13:52:15.707Z,7.40
2019-05-10T13:53:20.798Z,7.60
2019-05-10T13:54:24.899Z,8.03
2019-05-10T13:55:28.648Z,8.03
2019-05-10T13:56:32.467Z,7.10
2019-05-10T13:57:36.221Z,7.37
2019-05-10T13:58:39.980Z,8.43
2019-05-10T13:59:48.957Z,8.10
2019-05-10T14:00:49.309Z,8.63
2019-05-10T14:01:53.051Z,8.50
2019-05-10T14:02:56.802Z,8.45
2019-05-10T14:04:03.293Z,7.80
2019-05-10T14:05:12.009Z,8.23
2019-05-10T14:06:12.822Z,9.28
2019-05-10T14:07:16.766Z,8.10
2019-05-10T14:08:20.503Z,9.55
2019-05-10T14:09:25.600Z,9.25
2019-05-10T14:10:29.363Z,9.58
2019-05-10T14:11:34.169Z,10.05
2019-05-10T14:12:38.886Z,9.98
2019-05-10T14:13:43.248Z,11.05
2019-05-10T14:14:47.215Z,11.05
2019-05-10T14:15:51.180Z,11.33
2019-05-10T14:16:55.506Z,11.40
2019-05-10T14:17:59.300Z,12.13
2019-05-10T14:19:03.059Z,10.48